createdAt,value
2017-08-19T00:00:38.670Z,0.88
2017-08-19T00:03:12.512Z,0.88
2017-08-19T00:05:47.701Z,0.80
2017-08-19T00:08:23.924Z,0.75
2017-08-19T00:10:58.464Z,0.90
2017-08-19T00:13:32.327Z,0.80
2017-08-19T00:16:07.319Z,0.90
2017-08-19T00:18:42.744Z,0.85
2017-08-19T00:21:16.613Z,0.80
2017-08-19T00:23:51.420Z,1.10
2017-08-19T00:26:28.185Z,0.80
2017-08-19T00:29:02.654Z,1.15
2017-08-19T00:31:38.894Z,0.60
2017-08-19T00:34:12.825Z,0.73
2017-08-19T00:36:47.867Z,0.70
2017-08-19T00:39:22.423Z,1.00
2017-08-19T00:41:58.122Z,0.70
2017-08-19T00:44:32.708Z,0.98
2017-08-19T00:47:08.319Z,0.93
2017-08-19T00:49:43.202Z,0.88
2017-08-19T00:52:17.822Z,0.82
2017-08-19T00:54:51.495Z,0.70
2017-08-19T00:57:27.494Z,0.82
2017-08-19T01:00:04.417Z,0.68
2017-08-19T01:02:38.277Z,0.60
2017-08-19T01:05:13.034Z,0.77
2017-08-19T01:07:48.754Z,0.75
2017-08-19T01:10:25.590Z,1.00
2017-08-19T01:13:02.636Z,0.80
2017-08-19T01:15:37.355Z,0.80
2017-08-19T01:18:14.304Z,0.70
2017-08-19T01:20:49.411Z,0.60
2017-08-19T01:23:23.225Z,0.80
2017-08-19T01:26:09.193Z,0.70
2017-08-19T01:28:43.861Z,0.77
2017-08-19T01:31:18.468Z,0.68
2017-08-19T01:33:54.974Z,0.70
2017-08-19T01:36:30.446Z,0.80
2017-08-19T01:39:05.780Z,1.02
2017-08-19T01:41:41.347Z,0.90
2017-08-19T01:44:15.306Z,0.80
2017-08-19T01:46:50.726Z,0.95
2017-08-19T01:49:26.839Z,0.80
2017-08-19T01:52:01.261Z,0.80
2017-08-19T01:54:35.674Z,0.62
2017-08-19T01:57:10.353Z,1.10
2017-08-19T01:59:44.236Z,0.90
2017-08-19T02:02:18.810Z,0.82
2017-08-19T02:04:52.786Z,0.70
2017-08-19T02:07:28.347Z,0.88
2017-08-19T02:10:03.121Z,0.90
2017-08-19T02:12:37.390Z,0.85
2017-08-19T02:15:11.918Z,0.80
2017-08-19T02:17:45.739Z,0.90
2017-08-19T02:20:20.613Z,1.00
2017-08-19T02:22:55.689Z,0.90
2017-08-19T02:25:30.802Z,0.98
2017-08-19T02:28:04.372Z,0.90
2017-08-19T02:30:41.291Z,0.70
2017-08-19T02:33:17.853Z,0.70
2017-08-19T02:35:51.635Z,0.82
2017-08-19T02:38:25.452Z,1.10
2017-08-19T02:40:59.173Z,0.93
2017-08-19T02:43:33.029Z,0.90
2017-08-19T02:46:08.606Z,0.70
2017-08-19T02:48:42.375Z,0.70
2017-08-19T02:51:18.175Z,0.95
2017-08-19T02:53:51.811Z,0.93
2017-08-19T02:56:25.653Z,0.95
2017-08-19T02:59:00.017Z,0.95
2017-08-19T03:01:36.898Z,0.80
2017-08-19T03:04:10.868Z,0.80
2017-08-19T03:06:45.188Z,0.90
2017-08-19T03:09:20.013Z,0.85
2017-08-19T03:11:54.465Z,1.05
2017-08-19T03:14:28.559Z,0.70
2017-08-19T03:17:02.956Z,0.80
2017-08-19T03:19:38.893Z,0.90
2017-08-19T03:22:12.736Z,0.90
2017-08-19T03:24:48.143Z,1.00
2017-08-19T03:27:24.290Z,0.90
2017-08-19T03:29:59.401Z,0.88
2017-08-19T03:32:33.626Z,0.70
2017-08-19T03:35:08.288Z,0.80
2017-08-19T03:37:45.683Z,0.70
2017-08-19T03:40:24.537Z,0.90
2017-08-19T03:42:59.055Z,1.08
2017-08-19T03:45:36.006Z,0.80
2017-08-19T03:48:09.778Z,1.10
2017-08-19T03:50:49.169Z,1.00
2017-08-19T03:53:24.305Z,0.85
2017-08-19T03:56:01.730Z,1.02
2017-08-19T03:58:35.484Z,0.80
2017-08-19T04:01:11.863Z,0.85
2017-08-19T04:03:46.521Z,0.90
2017-08-19T04:06:22.802Z,0.80
2017-08-19T04:08:59.653Z,0.82
2017-08-19T04:11:34.349Z,0.80
2017-08-19T04:14:08.073Z,0.70
2017-08-19T04:16:41.831Z,1.10
2017-08-19T04:19:16.585Z,0.82
2017-08-19T04:21:50.331Z,0.80
2017-08-19T04:24:26.784Z,0.80
2017-08-19T04:27:00.563Z,0.90
2017-08-19T04:29:36.052Z,0.88
2017-08-19T04:32:09.885Z,0.93
2017-08-19T04:34:43.700Z,1.12
2017-08-19T04:37:24.389Z,1.05
2017-08-19T04:40:00.310Z,1.10
2017-08-19T04:42:35.044Z,1.00
2017-08-19T04:45:10.348Z,0.90
2017-08-19T04:47:44.322Z,0.82
2017-08-19T04:50:19.221Z,0.80
2017-08-19T04:52:54.398Z,0.93
2017-08-19T04:55:29.768Z,0.90
2017-08-19T04:58:03.436Z,1.05
2017-08-19T05:00:39.756Z,0.80
2017-08-19T05:03:14.450Z,1.30
2017-08-19T05:05:49.831Z,0.90
2017-08-19T05:08:23.779Z,0.95
2017-08-19T05:10:59.022Z,0.80
2017-08-19T05:13:33.856Z,0.82
2017-08-19T05:16:07.705Z,0.90
2017-08-19T05:18:42.244Z,1.05
2017-08-19T05:21:16.825Z,0.93
2017-08-19T05:23:51.533Z,1.05
2017-08-19T05:26:26.269Z,1.15
2017-08-19T05:29:01.713Z,1.00
2017-08-19T05:31:38.196Z,1.10
2017-08-19T05:34:12.020Z,1.00
2017-08-19T05:36:46.350Z,0.80
2017-08-19T05:39:20.132Z,1.08
2017-08-19T05:41:54.592Z,0.95
2017-08-19T05:44:31.222Z,1.15
2017-08-19T05:47:05.113Z,1.05
2017-08-19T05:49:40.171Z,1.10
2017-08-19T05:52:14.426Z,0.90
2017-08-19T05:54:50.091Z,0.82
2017-08-19T05:57:27.899Z,1.02
2017-08-19T06:00:02.445Z,1.95
2017-08-19T06:02:36.977Z,1.00
2017-08-19T06:05:10.641Z,1.15
2017-08-19T06:07:46.128Z,0.98
2017-08-19T06:10:22.613Z,0.88
2017-08-19T06:13:00.617Z,1.05
2017-08-19T06:15:35.264Z,1.00
2017-08-19T06:18:09.215Z,1.00
2017-08-19T06:20:45.257Z,1.30
2017-08-19T06:23:18.908Z,0.70
2017-08-19T06:25:53.436Z,1.10
2017-08-19T06:28:29.842Z,1.05
2017-08-19T06:31:03.638Z,1.00
2017-08-19T06:33:37.739Z,1.00
2017-08-19T06:36:11.946Z,0.88
2017-08-19T06:38:48.315Z,0.90
2017-08-19T06:41:22.062Z,1.25
2017-08-19T06:43:55.820Z,1.20
2017-08-19T06:46:33.265Z,1.10
2017-08-19T06:49:08.527Z,1.05
2017-08-19T06:51:42.155Z,1.10
2017-08-19T06:54:16.547Z,0.80
2017-08-19T06:56:50.749Z,1.20
2017-08-19T06:59:24.557Z,1.05
2017-08-19T07:02:00.583Z,0.90
2017-08-19T07:04:34.537Z,1.10
2017-08-19T07:07:09.279Z,1.40
2017-08-19T07:09:43.119Z,1.10
2017-08-19T07:12:19.845Z,1.02
2017-08-19T07:14:55.429Z,1.15
2017-08-19T07:17:31.223Z,1.10
2017-08-19T07:20:07.457Z,1.02
2017-08-19T07:22:41.286Z,1.10
2017-08-19T07:25:16.035Z,1.10
2017-08-19T07:27:49.970Z,1.20
2017-08-19T07:30:26.560Z,0.90
2017-08-19T07:33:00.303Z,0.90
2017-08-19T07:35:35.207Z,1.10
2017-08-19T07:38:14.132Z,1.20
2017-08-19T07:40:52.726Z,1.27
2017-08-19T07:43:26.491Z,1.30
2017-08-19T07:46:00.916Z,1.05
2017-08-19T07:48:40.346Z,1.10
2017-08-19T07:51:20.615Z,1.20
2017-08-19T07:53:54.461Z,1.02
2017-08-19T07:56:30.643Z,1.50
2017-08-19T08:01:49.175Z,1.17
2017-08-19T08:04:26.673Z,1.12
2017-08-19T08:07:07.430Z,0.70
2017-08-19T08:09:43.639Z,1.20
2017-08-19T08:12:23.734Z,0.90
2017-08-19T08:14:57.917Z,1.00
2017-08-19T08:17:35.306Z,0.98
2017-08-19T08:20:10.054Z,0.95
2017-08-19T08:22:45.872Z,1.20
2017-08-19T08:25:21.747Z,1.10
2017-08-19T08:27:56.705Z,1.20
2017-08-19T08:30:33.932Z,1.33
2017-08-19T08:33:11.888Z,1.00
2017-08-19T08:35:46.379Z,1.30
2017-08-19T08:38:23.294Z,1.90
2017-08-19T08:41:01.404Z,0.90
2017-08-19T08:43:35.242Z,1.00
2017-08-19T08:46:19.830Z,1.15
2017-08-19T08:48:55.696Z,1.42
2017-08-19T08:51:32.565Z,1.52
2017-08-19T08:54:09.897Z,1.20
2017-08-19T08:56:49.335Z,1.30
2017-08-19T08:59:33.545Z,1.30
2017-08-19T09:02:10.538Z,1.05
2017-08-19T09:04:45.807Z,1.73
2017-08-19T09:07:24.860Z,1.80
2017-08-19T09:09:58.773Z,1.45
2017-08-19T09:12:34.634Z,1.30
2017-08-19T09:15:09.640Z,1.50
2017-08-19T09:17:49.545Z,1.90
2017-08-19T09:20:25.181Z,1.20
2017-08-19T09:23:10.555Z,1.40
2017-08-19T09:25:45.114Z,1.37
2017-08-19T09:28:21.093Z,1.35
2017-08-19T09:30:59.553Z,1.35
2017-08-19T09:33:37.197Z,1.52
2017-08-19T09:36:10.928Z,1.30
2017-08-19T09:38:45.864Z,1.85
2017-08-19T09:41:19.668Z,2.10
2017-08-19T09:43:56.143Z,1.73
2017-08-19T09:46:30.859Z,1.45
2017-08-19T09:49:07.432Z,1.65
2017-08-19T09:51:42.147Z,1.30
2017-08-19T09:54:16.087Z,1.65
2017-08-19T09:56:51.304Z,1.80
2017-08-19T09:59:25.806Z,1.48
2017-08-19T10:02:00.490Z,1.80
2017-08-19T10:04:35.235Z,1.40
2017-08-19T10:07:10.119Z,1.42
2017-08-19T10:09:49.997Z,1.52
2017-08-19T10:12:24.787Z,1.30
2017-08-19T10:14:59.522Z,1.55
2017-08-19T10:17:36.166Z,1.65
2017-08-19T10:20:11.890Z,1.60
2017-08-19T10:22:46.417Z,1.40
2017-08-19T10:28:05.080Z,1.60
2017-08-19T10:30:39.808Z,1.67
2017-08-19T10:33:15.196Z,1.70
2017-08-19T10:35:50.639Z,1.30
2017-08-19T10:38:26.027Z,1.50
2017-08-19T10:41:00.797Z,1.30
2017-08-19T10:43:36.478Z,1.45
2017-08-19T10:46:15.661Z,1.45
2017-08-19T10:48:49.425Z,1.35
2017-08-19T10:51:26.682Z,1.50
2017-08-19T10:54:03.557Z,1.40
2017-08-19T10:56:39.115Z,1.40
2017-08-19T10:59:14.571Z,1.40
2017-08-19T11:01:49.420Z,1.60
2017-08-19T11:04:26.605Z,1.33
2017-08-19T11:07:01.001Z,1.58
2017-08-19T11:09:34.988Z,1.70
2017-08-19T11:12:10.354Z,1.40
2017-08-19T11:14:44.207Z,1.65
2017-08-19T11:17:23.116Z,1.40
2017-08-19T11:19:58.814Z,1.73
2017-08-19T11:22:36.001Z,1.33
2017-08-19T11:25:10.791Z,1.30
2017-08-19T11:27:46.548Z,1.55
2017-08-19T11:30:21.801Z,1.65
2017-08-19T11:32:56.673Z,1.90
2017-08-19T11:35:35.060Z,1.60
2017-08-19T11:38:09.063Z,1.40
2017-08-19T11:40:46.852Z,1.55
2017-08-19T11:43:27.635Z,1.30
2017-08-19T11:46:01.709Z,1.70
2017-08-19T11:48:36.262Z,2.10
2017-08-19T11:51:12.715Z,2.30
2017-08-19T11:53:48.076Z,2.20
2017-08-19T11:56:26.284Z,2.00
2017-08-19T11:59:01.928Z,2.80
2017-08-19T12:01:35.832Z,2.28
2017-08-19T12:04:19.173Z,2.42
2017-08-19T12:06:54.087Z,2.90
2017-08-19T12:09:30.540Z,2.37
2017-08-19T12:12:07.576Z,1.90
2017-08-19T12:14:41.688Z,1.95
2017-08-19T12:17:18.903Z,2.00
2017-08-19T12:19:54.815Z,1.73
2017-08-19T12:22:30.451Z,1.40
2017-08-19T12:25:07.417Z,1.67
2017-08-19T12:27:41.160Z,1.90
2017-08-19T12:30:15.501Z,1.50
2017-08-19T12:32:50.072Z,1.30
2017-08-19T12:35:24.990Z,1.80
2017-08-19T12:37:59.466Z,1.50
2017-08-19T12:40:36.693Z,1.67
2017-08-19T12:43:11.234Z,2.08
2017-08-19T12:45:45.937Z,2.10
2017-08-19T12:48:19.653Z,1.30
2017-08-19T12:51:01.175Z,1.55
2017-08-19T12:53:36.652Z,1.70
2017-08-19T12:56:11.394Z,1.92
2017-08-19T12:58:46.672Z,1.70
2017-08-19T13:01:23.165Z,1.70
2017-08-19T13:04:05.511Z,1.75
2017-08-19T13:06:41.035Z,1.42
2017-08-19T13:09:18.607Z,1.83
2017-08-19T13:11:54.634Z,1.85
2017-08-19T13:14:33.551Z,1.40
2017-08-19T13:17:10.792Z,1.77
2017-08-19T13:19:49.582Z,1.55
2017-08-19T13:22:23.675Z,1.80
2017-08-19T13:25:02.308Z,1.73
2017-08-19T13:27:37.608Z,1.95
2017-08-19T13:30:11.566Z,1.90
2017-08-19T13:32:48.266Z,1.80
2017-08-19T13:35:22.833Z,2.30
2017-08-19T13:37:57.427Z,1.90
2017-08-19T13:40:33.602Z,2.20
2017-08-19T13:43:10.814Z,1.98
2017-08-19T13:45:51.698Z,1.87
2017-08-19T13:48:25.518Z,2.22
2017-08-19T13:51:04.460Z,1.90
2017-08-19T13:53:39.942Z,1.87
2017-08-19T13:56:19.141Z,1.92
2017-08-19T13:58:53.943Z,1.58
2017-08-19T14:01:28.513Z,1.80
2017-08-19T14:04:02.545Z,2.00
2017-08-19T14:06:38.142Z,1.70
2017-08-19T14:09:12.147Z,2.00
2017-08-19T14:11:47.239Z,1.65
2017-08-19T14:14:22.088Z,1.92
2017-08-19T14:16:56.828Z,1.70
2017-08-19T14:19:33.308Z,1.85
2017-08-19T14:22:08.542Z,1.80
2017-08-19T14:24:42.579Z,2.17
2017-08-19T14:27:17.169Z,1.85
2017-08-19T14:29:54.333Z,1.90
2017-08-19T14:32:29.292Z,1.60
2017-08-19T14:35:04.762Z,1.40
2017-08-19T14:37:48.889Z,1.58
2017-08-19T14:40:26.491Z,1.75
2017-08-19T14:43:01.166Z,2.00
2017-08-19T14:45:40.859Z,1.90
2017-08-19T14:48:22.263Z,1.90
2017-08-19T14:50:56.456Z,1.80
2017-08-19T14:53:31.132Z,1.58
2017-08-19T14:56:06.708Z,2.15
2017-08-19T14:58:41.358Z,1.70
2017-08-19T15:01:15.765Z,1.87
2017-08-19T15:03:55.693Z,1.80
2017-08-19T15:06:31.430Z,1.80
2017-08-19T15:09:05.044Z,1.87
2017-08-19T15:11:38.798Z,1.50
2017-08-19T15:14:12.568Z,2.00
2017-08-19T15:16:46.279Z,1.60
2017-08-19T15:19:20.894Z,1.70
2017-08-19T15:21:55.136Z,2.00
2017-08-19T15:24:28.900Z,1.98
2017-08-19T15:27:02.562Z,1.90
2017-08-19T15:29:37.138Z,2.00
2017-08-19T15:32:11.578Z,1.52
2017-08-19T15:34:48.740Z,1.92
2017-08-19T15:37:24.663Z,1.58
2017-08-19T15:40:00.615Z,2.20
2017-08-19T15:42:35.677Z,1.75
2017-08-19T15:45:11.065Z,2.22
2017-08-19T15:47:45.088Z,1.80
2017-08-19T15:50:18.948Z,1.98
2017-08-19T15:53:03.708Z,2.37
2017-08-19T15:55:45.353Z,1.92
2017-08-19T15:58:20.528Z,1.98
2017-08-19T16:00:55.770Z,2.20
2017-08-19T16:03:30.534Z,2.20
2017-08-19T16:06:07.067Z,2.22
2017-08-19T16:08:41.657Z,2.20
2017-08-19T16:11:17.266Z,2.15
2017-08-19T16:13:53.026Z,2.00
2017-08-19T16:16:27.058Z,2.17
2017-08-19T16:19:06.111Z,1.83
2017-08-19T16:21:39.849Z,1.80
2017-08-19T16:24:13.720Z,1.87
2017-08-19T16:26:47.439Z,1.80
2017-08-19T16:29:21.864Z,2.70
2017-08-19T16:32:03.389Z,2.10
2017-08-19T16:34:42.647Z,1.80
2017-08-19T16:37:18.834Z,2.20
2017-08-19T16:39:58.922Z,2.03
2017-08-19T16:42:52.341Z,2.15
2017-08-19T16:45:36.971Z,1.75
2017-08-19T16:48:11.219Z,2.45
2017-08-19T16:50:48.060Z,1.75
2017-08-19T16:53:22.997Z,2.05
2017-08-19T16:56:02.008Z,1.90
2017-08-19T16:58:35.806Z,1.90
2017-08-19T17:01:17.361Z,2.10
2017-08-19T17:03:51.162Z,1.80
2017-08-19T17:06:26.538Z,2.05
2017-08-19T17:09:01.976Z,2.40
2017-08-19T17:11:35.983Z,1.95
2017-08-19T17:14:09.847Z,2.12
2017-08-19T17:16:44.991Z,2.00
2017-08-19T17:19:22.785Z,1.90
2017-08-19T17:22:02.453Z,2.20
2017-08-19T17:24:38.237Z,2.00
2017-08-19T17:27:13.019Z,2.15
2017-08-19T17:29:48.035Z,1.60
2017-08-19T17:32:23.338Z,1.90
2017-08-19T17:35:03.929Z,2.08
2017-08-19T17:37:41.760Z,2.03
2017-08-19T17:40:27.101Z,1.62
2017-08-19T17:43:03.193Z,1.92
2017-08-19T17:45:38.061Z,1.90
2017-08-19T17:48:12.593Z,1.90
2017-08-19T17:50:47.906Z,1.65
2017-08-19T17:53:33.772Z,1.90
2017-08-19T17:56:08.679Z,1.70
2017-08-19T17:58:44.551Z,1.70
2017-08-19T18:01:19.700Z,1.45
2017-08-19T18:03:53.849Z,1.80
2017-08-19T18:06:27.886Z,1.65
2017-08-19T18:09:01.964Z,1.83
2017-08-19T18:11:37.602Z,1.75
2017-08-19T18:14:13.463Z,1.55
2017-08-19T18:16:52.591Z,1.50
2017-08-19T18:19:30.510Z,1.40
2017-08-19T18:22:07.081Z,1.58
2017-08-19T18:24:43.641Z,2.15
2017-08-19T18:27:20.194Z,1.52
2017-08-19T18:29:57.828Z,1.83
2017-08-19T18:32:31.712Z,1.73
2017-08-19T18:35:08.279Z,1.83
2017-08-19T18:37:44.742Z,1.73
2017-08-19T18:40:25.301Z,2.10
2017-08-19T18:43:01.013Z,2.15
2017-08-19T18:45:38.312Z,1.85
2017-08-19T18:48:13.224Z,2.12
2017-08-19T18:50:48.139Z,1.73
2017-08-19T18:53:21.996Z,1.85
2017-08-19T18:55:56.150Z,1.83
2017-08-19T18:58:35.264Z,2.05
2017-08-19T19:01:09.752Z,1.70
2017-08-19T19:03:52.179Z,1.90
2017-08-19T19:06:33.058Z,1.92
2017-08-19T19:09:07.703Z,1.98
2017-08-19T19:11:47.209Z,2.10
2017-08-19T19:14:26.675Z,1.70
2017-08-19T19:17:03.532Z,1.92
2017-08-19T19:19:38.564Z,1.90
2017-08-19T19:22:13.983Z,1.85
2017-08-19T19:24:53.497Z,2.12
2017-08-19T19:27:32.656Z,2.10
2017-08-19T19:30:08.868Z,2.12
2017-08-19T19:32:45.459Z,1.67
2017-08-19T19:35:21.634Z,1.52
2017-08-19T19:37:56.814Z,1.95
2017-08-19T19:40:34.224Z,2.10
2017-08-19T19:43:17.821Z,2.20
2017-08-19T19:45:56.755Z,1.80
2017-08-19T19:48:32.841Z,1.70
2017-08-19T19:51:10.129Z,1.70
2017-08-19T19:53:45.677Z,2.12
2017-08-19T19:56:21.486Z,2.00
2017-08-19T19:58:55.666Z,2.00
2017-08-19T20:01:30.775Z,1.75
2017-08-19T20:04:06.794Z,1.52
2017-08-19T20:06:42.464Z,2.22
2017-08-19T20:09:18.116Z,1.90
2017-08-19T20:11:54.211Z,1.58
2017-08-19T20:14:32.679Z,2.00
2017-08-19T20:17:09.471Z,1.80
2017-08-19T20:19:43.655Z,2.00
2017-08-19T20:22:20.368Z,2.47
2017-08-19T20:24:55.361Z,1.85
2017-08-19T20:27:30.012Z,2.08
2017-08-19T20:30:06.060Z,2.95
2017-08-19T20:32:42.836Z,2.00
2017-08-19T20:35:16.885Z,1.70
2017-08-19T20:37:51.449Z,2.20
2017-08-19T20:40:26.850Z,1.90
2017-08-19T20:43:02.696Z,2.55
2017-08-19T20:45:37.422Z,2.33
2017-08-19T20:48:12.889Z,1.95
2017-08-19T20:50:48.564Z,2.12
2017-08-19T20:53:23.489Z,1.95
2017-08-19T20:55:58.213Z,1.83
2017-08-19T20:58:33.704Z,1.80
2017-08-19T21:01:08.327Z,3.47
2017-08-19T21:03:46.029Z,1.50
2017-08-19T21:06:22.319Z,1.60
2017-08-19T21:08:57.787Z,1.70
2017-08-19T21:11:33.081Z,1.73
2017-08-19T21:14:07.098Z,1.80
2017-08-19T21:16:44.739Z,2.25
2017-08-19T21:19:26.229Z,1.60
2017-08-19T21:22:01.303Z,1.77
2017-08-19T21:24:36.153Z,2.03
2017-08-19T21:27:11.787Z,2.30
2017-08-19T21:29:47.497Z,1.70
2017-08-19T21:32:23.341Z,2.17
2017-08-19T21:34:57.502Z,1.95
2017-08-19T21:37:39.065Z,1.98
2017-08-19T21:40:14.518Z,2.00
2017-08-19T21:42:49.483Z,2.22
2017-08-19T21:45:25.549Z,2.10
2017-08-19T21:48:00.495Z,1.48
2017-08-19T21:50:40.212Z,1.77
2017-08-19T21:53:18.068Z,1.65
2017-08-19T21:55:54.819Z,1.75
2017-08-19T21:58:29.645Z,2.08
2017-08-19T22:01:04.505Z,1.90
2017-08-19T22:03:38.374Z,2.03
2017-08-19T22:06:14.262Z,1.83
2017-08-19T22:08:51.094Z,2.12
2017-08-19T22:11:26.510Z,2.45
2017-08-19T22:14:03.296Z,1.95
2017-08-19T22:16:47.676Z,2.40
2017-08-19T22:19:21.426Z,1.85
2017-08-19T22:21:55.172Z,2.25
2017-08-19T22:24:29.076Z,1.62
2017-08-19T22:27:02.865Z,1.80
2017-08-19T22:29:36.672Z,1.65
2017-08-19T22:32:10.400Z,2.25
2017-08-19T22:34:44.141Z,1.87
2017-08-19T22:37:17.886Z,2.20
2017-08-19T22:39:51.709Z,1.80
2017-08-19T22:42:26.333Z,2.40
2017-08-19T22:45:00.014Z,1.80
2017-08-19T22:47:33.872Z,1.80
2017-08-19T22:50:07.578Z,2.03
2017-08-19T22:52:42.328Z,2.15
2017-08-19T22:55:16.096Z,1.98
2017-08-19T22:57:51.594Z,1.70
2017-08-19T23:00:26.032Z,1.95
2017-08-19T23:03:01.371Z,1.70
2017-08-19T23:05:35.216Z,1.80
2017-08-19T23:08:08.976Z,1.40
2017-08-19T23:10:45.625Z,2.20
2017-08-19T23:13:20.240Z,1.85
2017-08-19T23:15:58.039Z,2.10
2017-08-19T23:18:32.780Z,2.12
2017-08-19T23:21:09.107Z,1.50
2017-08-19T23:23:43.185Z,1.87
2017-08-19T23:26:17.230Z,1.80
2017-08-19T23:28:51.163Z,1.52
2017-08-19T23:31:25.923Z,1.70
2017-08-19T23:34:09.440Z,2.50
2017-08-19T23:36:45.268Z,1.80
2017-08-19T23:39:20.487Z,1.83
2017-08-19T23:41:56.400Z,1.70
2017-08-19T23:44:32.359Z,1.80
2017-08-19T23:47:12.866Z,2.62
2017-08-19T23:49:48.335Z,1.90
2017-08-19T23:52:25.465Z,1.50
2017-08-19T23:55:00.220Z,1.75
2017-08-19T23:57:34.114Z,1.65
